Time;durP1;ratioP1;P1;durP2;ratioP2;P2;SDS_P1;SDS_P2;PMS_P1;PMS_P2;Temp;Humidity;BMP_temperature;BMP_pressure;BME280_temperature;BME280_humidity;BME280_pressure;Samples;Min_cycle;Max_cycle;Signal;HPM_P1;HPM_P2
2024/04/15 00:00:42;;;;;;;0.03;0.00;;;15.40;65.60;;;;;;5434040;26;20048;-66
2024/04/15 00:03:08;;;;;;;0.03;0.03;;;15.30;65.80;;;;;;5425028;26;20229;-66
2024/04/15 00:05:34;;;;;;;0.32;0.32;;;15.30;66.00;;;;;;5407185;26;20180;-66
2024/04/15 00:08:00;;;;;;;0.30;0.17;;;15.30;66.20;;;;;;5426756;26;20010;-66
2024/04/15 00:10:26;;;;;;;0.10;0.10;;;15.30;66.40;;;;;;5425625;26;20001;-66
2024/04/15 00:12:51;;;;;;;0.08;0.08;;;15.30;66.50;;;;;;5424832;26;20066;-66
2024/04/15 00:15:17;;;;;;;0.35;0.35;;;15.30;66.30;;;;;;5424941;26;20004;-66
2024/04/15 00:17:43;;;;;;;0.00;0.00;;;15.30;66.50;;;;;;5434161;26;20002;-66
2024/04/15 00:20:09;;;;;;;0.10;0.00;;;15.30;66.60;;;;;;5424730;26;20204;-66
2024/04/15 00:22:35;;;;;;;1.35;0.08;;;15.30;66.60;;;;;;5423463;26;20097;-66
2024/04/15 00:25:01;;;;;;;0.00;0.00;;;15.30;66.50;;;;;;5424714;26;19996;-67
2024/04/15 00:27:27;;;;;;;0.10;0.10;;;15.40;88.00;;;;;;5424823;26;20332;-67
2024/04/15 00:29:53;;;;;;;0.05;0.05;;;15.40;66.20;;;;;;5424525;26;20309;-67
2024/04/15 00:32:18;;;;;;;0.25;0.20;;;15.50;65.70;;;;;;5424804;26;19992;-67
2024/04/15 00:34:44;;;;;;;0.20;0.20;;;15.60;65.90;;;;;;5433981;26;19998;-68
2024/04/15 00:37:10;;;;;;;0.08;0.08;;;15.60;66.00;;;;;;5424634;26;20101;-66
2024/04/15 00:39:36;;;;;;;0.05;0.05;;;15.70;87.00;;;;;;5424512;26;19988;-66
2024/04/15 00:42:05;;;;;;;0.30;0.10;;;15.60;65.70;;;;;;5445303;26;19990;-66
2024/04/15 00:44:32;;;;;;;0.17;0.17;;;15.80;87.60;;;;;;5435178;26;20051;-66
2024/04/15 00:46:59;;;;;;;0.00;0.00;;;15.70;65.90;;;;;;5434534;26;20019;-66
2024/04/15 00:49:24;;;;;;;0.20;0.20;;;15.70;66.10;;;;;;5424129;26;19991;-66
2024/04/15 00:51:50;;;;;;;0.43;0.32;;;15.70;66.00;;;;;;5449340;26;20103;-67
2024/04/15 00:54:16;;;;;;;0.10;0.10;;;15.70;66.00;;;;;;5424294;26;20059;-67
2024/04/15 00:56:42;;;;;;;0.00;0.00;;;15.80;65.90;;;;;;5424189;26;19988;-67
2024/04/15 00:59:10;;;;;;;0.10;0.10;;;15.70;66.00;;;;;;5438964;26;20089;-67
2024/04/15 01:01:36;;;;;;;0.05;0.05;;;15.70;66.10;;;;;;5424176;26;20019;-68
2024/04/15 01:04:02;;;;;;;0.00;0.00;;;15.60;66.40;;;;;;5423982;26;20092;-67
2024/04/15 01:06:28;;;;;;;0.10;0.10;;;15.60;66.50;;;;;;5413414;26;20224;-67
2024/04/15 01:08:53;;;;;;;0.77;0.20;;;15.60;89.10;;;;;;5433483;26;20216;-65
2024/04/15 01:11:19;;;;;;;0.10;0.10;;;15.40;89.10;;;;;;5424105;26;20200;-67
2024/04/15 01:13:45;;;;;;;0.65;0.15;;;15.50;67.60;;;;;;5423751;26;19988;-67
2024/04/15 01:16:11;;;;;;;0.00;0.00;;;15.40;67.40;;;;;;5423931;26;20011;-67
2024/04/15 01:18:36;;;;;;;0.15;0.15;;;15.40;67.50;;;;;;5423734;26;20007;-67
2024/04/15 01:21:03;;;;;;;0.05;0.05;;;15.40;67.60;;;;;;5423843;26;20007;-67
2024/04/15 01:23:37;;;;;;;0.00;0.00;;;15.40;67.70;;;;;;5423806;26;19992;-67
2024/04/15 01:26:03;;;;;;;0.05;0.05;;;15.40;67.90;;;;;;5433258;26;19991;-67
2024/04/15 01:28:29;;;;;;;0.30;0.20;;;15.40;68.10;;;;;;5423892;26;19991;-67
2024/04/15 01:30:54;;;;;;;0.10;0.10;;;15.40;68.00;;;;;;5423683;26;19995;-67
2024/04/15 01:33:20;;;;;;;0.00;0.00;;;15.40;68.00;;;;;;5418410;26;19990;-67
2024/04/15 01:35:46;;;;;;;0.03;0.03;;;15.40;89.40;;;;;;5432211;26;19991;-67
2024/04/15 01:38:11;;;;;;;0.00;0.00;;;15.40;68.50;;;;;;5427212;26;20049;-67
2024/04/15 01:40:37;;;;;;;0.05;0.05;;;15.40;67.70;;;;;;5426743;26;19999;-67
2024/04/15 01:43:03;;;;;;;0.15;0.03;;;15.40;67.40;;;;;;5436458;26;20000;-67
2024/04/15 01:45:29;;;;;;;0.10;0.10;;;15.40;67.60;;;;;;5438702;26;20208;-67
2024/04/15 01:47:55;;;;;;;0.00;0.00;;;15.40;67.80;;;;;;5429890;26;20002;-67
2024/04/15 01:50:22;;;;;;;0.00;0.00;;;15.40;68.00;;;;;;5427143;26;20004;-67
2024/04/15 01:52:47;;;;;;;0.00;0.00;;;15.30;68.10;;;;;;5367116;26;20003;-67
2024/04/15 01:55:13;;;;;;;0.30;0.30;;;15.30;68.30;;;;;;5427040;26;19988;-67
2024/04/15 01:57:39;;;;;;;0.10;0.10;;;15.20;68.50;;;;;;5426906;26;20007;-67
2024/04/15 02:00:06;;;;;;;0.10;0.10;;;15.00;92.50;;;;;;5436172;26;19998;-67
2024/04/15 02:02:34;;;;;;;0.10;0.10;;;15.00;69.20;;;;;;5426841;26;20116;-67
2024/04/15 02:05:00;;;;;;;0.00;0.00;;;14.90;69.40;;;;;;5426887;26;19995;-67
2024/04/15 02:07:28;;;;;;;0.08;0.08;;;14.90;69.80;;;;;;5426657;26;20099;-67
2024/04/15 02:09:54;;;;;;;0.00;0.00;;;14.90;70.00;;;;;;5426670;26;19990;-67
2024/04/15 02:12:20;;;;;;;0.00;0.00;;;14.90;70.00;;;;;;5426587;26;19988;-66
2024/04/15 02:14:46;;;;;;;0.10;0.10;;;;;;;;;;5426542;26;20000;-67
2024/04/15 02:17:12;;;;;;;0.57;0.40;;;15.00;74.60;;;;;;5436161;26;19991;-67
2024/04/15 02:19:37;;;;;;;0.08;0.08;;;14.80;70.30;;;;;;5426570;26;20197;-67
2024/04/15 02:22:03;;;;;;;0.00;0.00;;;14.90;90.00;;;;;;5439725;26;20482;-68
2024/04/15 02:24:32;;;;;;;0.52;0.08;;;14.80;70.40;;;;;;5448269;26;19991;-67
2024/04/15 02:26:58;;;;;;;0.15;0.15;;;14.80;70.30;;;;;;5425107;26;19991;-67
2024/04/15 02:29:23;;;;;;;0.65;0.20;;;14.60;90.40;;;;;;5434722;26;20002;-67
2024/04/15 02:31:49;;;;;;;0.47;0.28;;;14.60;93.30;;;;;;5437854;26;19984;-67
2024/04/15 02:34:17;;;;;;;0.05;0.05;;;14.50;71.10;;;;;;5435773;26;19994;-65
2024/04/15 02:36:43;;;;;;;0.07;0.07;;;;;;;;;;5410103;26;20023;-67
2024/04/15 02:39:10;;;;;;;0.10;0.10;;;14.40;86.80;;;;;;5425868;26;20218;-67
2024/04/15 02:41:38;;;;;;;0.00;0.00;;;14.30;70.90;;;;;;5427999;26;20283;-66
2024/04/15 02:44:04;;;;;;;0.20;0.10;;;;;;;;;;5426015;26;19995;-67
2024/04/15 02:46:31;;;;;;;0.00;0.00;;;;;;;;;;5425272;26;20293;-66
2024/04/15 02:48:56;;;;;;;0.10;0.10;;;14.30;83.70;;;;;;5425911;26;20150;-68
2024/04/15 02:51:22;;;;;;;0.20;0.20;;;;;;;;;;5444991;26;20006;-67
2024/04/15 02:53:49;;;;;;;0.20;0.20;;;;;;;;;;5425699;26;20052;-67
2024/04/15 02:56:15;;;;;;;0.10;0.10;;;;;;;;;;5426025;26;20011;-68
2024/04/15 02:58:41;;;;;;;0.00;0.00;;;;;;;;;;5425766;26;20042;-67
2024/04/15 03:01:07;;;;;;;0.10;0.10;;;14.80;85.70;;;;;;5425683;26;20043;-68
2024/04/15 03:03:33;;;;;;;0.43;0.43;;;;;;;;;;5425927;26;20002;-68
2024/04/15 03:05:58;;;;;;;0.00;0.00;;;15.10;89.10;;;;;;5425547;26;19991;-68
2024/04/15 03:08:24;;;;;;;0.10;0.10;;;15.00;70.10;;;;;;5421266;26;20107;-68
2024/04/15 03:10:49;;;;;;;0.10;0.10;;;15.20;89.60;;;;;;5430046;26;20108;-68
2024/04/15 03:13:15;;;;;;;0.15;0.15;;;15.10;69.80;;;;;;5425714;26;20050;-68
2024/04/15 03:15:41;;;;;;;0.10;0.10;;;15.20;88.90;;;;;;5435642;26;20043;-68
2024/04/15 03:18:06;;;;;;;0.38;0.20;;;15.10;74.90;;;;;;5429086;26;19998;-68
2024/04/15 03:20:32;;;;;;;0.13;0.08;;;;;;;;;;5425461;26;19987;-68
2024/04/15 03:22:58;;;;;;;0.00;0.00;;;14.90;70.10;;;;;;5425164;26;20004;-68
2024/04/15 03:25:24;;;;;;;0.00;0.00;;;14.90;90.20;;;;;;5435263;26;20251;-68
2024/04/15 03:27:49;;;;;;;0.10;0.10;;;14.80;90.20;;;;;;5425325;26;20041;-68
2024/04/15 03:30:15;;;;;;;0.00;0.00;;;14.80;71.10;;;;;;5417640;26;19997;-68
2024/04/15 03:32:41;;;;;;;0.50;0.35;;;14.90;90.40;;;;;;5432013;26;19994;-68
2024/04/15 03:35:14;;;;;;;0.10;0.10;;;14.80;90.30;;;;;;5425178;26;19987;-68
2024/04/15 03:37:40;;;;;;;0.00;0.00;;;14.80;90.30;;;;;;5425567;26;20287;-68
2024/04/15 03:40:06;;;;;;;0.00;0.00;;;14.70;89.90;;;;;;5424471;26;19992;-66
2024/04/15 03:42:32;;;;;;;0.10;0.10;;;14.70;90.20;;;;;;5434376;26;20020;-67
2024/04/15 03:44:58;;;;;;;0.10;0.10;;;14.70;83.80;;;;;;5424253;26;19995;-66
2024/04/15 03:47:24;;;;;;;0.15;0.15;;;14.80;90.10;;;;;;5424738;26;20000;-66
2024/04/15 03:49:49;;;;;;;0.00;0.00;;;15.10;90.10;;;;;;5415772;26;20007;-67
2024/04/15 03:52:16;;;;;;;0.00;0.00;;;14.80;89.80;;;;;;5425712;26;20019;-69
2024/04/15 03:54:44;;;;;;;0.10;0.00;;;14.90;89.80;;;;;;5428310;26;19988;-68
2024/04/15 03:57:10;;;;;;;0.10;0.10;;;14.80;90.00;;;;;;5439226;26;19987;-69
2024/04/15 03:59:35;;;;;;;0.28;0.10;;;14.90;90.00;;;;;;5417801;26;20003;-66
2024/04/15 04:02:02;;;;;;;0.10;0.10;;;14.80;89.90;;;;;;5440323;26;20003;-67
2024/04/15 04:04:31;;;;;;;0.10;0.10;;;14.80;90.00;;;;;;5425495;26;19987;-67
2024/04/15 04:06:57;;;;;;;0.15;0.15;;;14.80;72.00;;;;;;5425261;26;20563;-67
2024/04/15 04:09:23;;;;;;;0.08;0.08;;;15.00;90.10;;;;;;5425355;26;20023;-67
2024/04/15 04:11:49;;;;;;;0.22;0.20;;;14.80;90.10;;;;;;5436126;26;19991;-66
2024/04/15 04:14:15;;;;;;;0.20;0.10;;;14.70;90.00;;;;;;5427438;26;20018;-65
2024/04/15 04:16:42;;;;;;;0.00;0.00;;;15.00;90.10;;;;;;5437513;26;19997;-68
2024/04/15 04:19:08;;;;;;;0.05;0.05;;;;;;;;;;5425110;26;19999;-71
2024/04/15 04:21:34;;;;;;;0.00;0.00;;;14.90;71.60;;;;;;5425050;26;20213;-68
2024/04/15 04:24:00;;;;;;;0.00;0.00;;;14.90;86.60;;;;;;5424830;26;19997;-68
2024/04/15 04:26:25;;;;;;;0.10;0.10;;;15.10;86.10;;;;;;5425150;26;20039;-68
2024/04/15 04:28:55;;;;;;;0.13;0.13;;;15.20;87.20;;;;;;5439611;26;19991;-67
2024/04/15 04:31:21;;;;;;;0.15;0.15;;;15.30;71.20;;;;;;5434818;26;20229;-68
2024/04/15 04:33:47;;;;;;;0.00;0.00;;;15.70;92.10;;;;;;5450534;26;19998;-68
2024/04/15 04:36:18;;;;;;;0.52;0.50;;;15.70;70.00;;;;;;5459290;26;20068;-69
2024/04/15 04:38:44;;;;;;;0.00;0.00;;;15.70;70.00;;;;;;5430368;26;20007;-68
2024/04/15 04:41:10;;;;;;;0.28;0.28;;;15.80;89.70;;;;;;5424521;26;20130;-67
2024/04/15 04:43:37;;;;;;;0.22;0.17;;;15.70;70.30;;;;;;5407353;26;19990;-68
2024/04/15 04:46:11;;;;;;;0.63;0.40;;;15.70;70.00;;;;;;5423152;26;20630;-70
2024/04/15 04:48:42;;;;;;;0.10;0.10;;;15.70;70.70;;;;;;5450384;26;20014;-66
2024/04/15 04:51:11;;;;;;;0.10;0.10;;;15.70;70.40;;;;;;5434227;26;19987;-68
2024/04/15 04:53:37;;;;;;;0.10;0.10;;;15.70;70.90;;;;;;5396585;26;20120;-69
2024/04/15 04:56:11;;;;;;;0.10;0.10;;;15.70;89.20;;;;;;5443083;26;19990;-67
2024/04/15 04:58:37;;;;;;;0.00;0.00;;;15.80;90.30;;;;;;5439127;26;20004;-67
2024/04/15 05:01:14;;;;;;;0.10;0.10;;;15.80;89.40;;;;;;5429972;26;21367;-66
2024/04/15 05:03:44;;;;;;;0.03;0.03;;;15.80;70.10;;;;;;5431623;26;20006;-67
2024/04/15 05:06:11;;;;;;;0.13;0.10;;;15.90;70.40;;;;;;5425073;26;19999;-67
2024/04/15 05:08:37;;;;;;;0.10;0.10;;;16.00;85.80;;;;;;5437755;26;20006;-67
2024/04/15 05:11:03;;;;;;;0.20;0.10;;;16.10;84.00;;;;;;5399963;26;19998;-67
2024/04/15 05:13:29;;;;;;;0.47;0.47;;;;;;;;;;5424386;26;20019;-70
2024/04/15 05:16:21;;;;;;;0.17;0.17;;;16.30;68.40;;;;;;5424102;26;19999;-66
2024/04/15 05:18:48;;;;;;;0.17;0.17;;;;;;;;;;5420751;26;19990;-66
2024/04/15 05:21:16;;;;;;;0.20;0.20;;;16.30;68.50;;;;;;5424132;26;19983;-68
2024/04/15 05:23:42;;;;;;;0.30;0.30;;;16.20;83.50;;;;;;5437783;26;20001;-67
2024/04/15 05:26:09;;;;;;;0.20;0.20;;;16.40;84.90;;;;;;5473218;26;20095;-67
2024/04/15 05:28:34;;;;;;;0.10;0.10;;;16.40;90.20;;;;;;5423914;26;20051;-68
2024/04/15 05:31:02;;;;;;;0.43;0.25;;;16.50;68.90;;;;;;5427906;26;20189;-67
2024/04/15 05:33:28;;;;;;;0.25;0.17;;;16.50;69.20;;;;;;5434133;26;19995;-67
2024/04/15 05:35:54;;;;;;;0.25;0.25;;;16.50;69.40;;;;;;5428267;26;20048;-67
2024/04/15 05:38:19;;;;;;;0.63;0.45;;;16.60;69.50;;;;;;5423801;26;20187;-68
2024/04/15 05:40:45;;;;;;;0.52;0.30;;;16.60;69.50;;;;;;5433311;26;19996;-68
2024/04/15 05:43:12;;;;;;;1.77;0.25;;;16.80;69.40;;;;;;5430229;26;20006;-69
2024/04/15 05:45:39;;;;;;;0.00;0.00;;;16.90;84.20;;;;;;5428673;26;19993;-67
2024/04/15 05:48:05;;;;;;;0.10;0.10;;;17.10;68.30;;;;;;5427423;26;19992;-67
2024/04/15 05:50:31;;;;;;;0.10;0.10;;;17.00;68.20;;;;;;5424467;26;20034;-68
2024/04/15 05:52:58;;;;;;;0.28;0.28;;;;;;;;;;5430941;26;20039;-67
2024/04/15 05:55:24;;;;;;;0.15;0.15;;;17.50;84.40;;;;;;5447237;26;20048;-67
2024/04/15 05:57:50;;;;;;;0.25;0.20;;;17.00;84.00;;;;;;5436497;26;19998;-69
2024/04/15 06:00:18;;;;;;;0.52;0.25;;;17.10;71.20;;;;;;5436636;26;20016;-67
2024/04/15 06:02:44;;;;;;;0.30;0.30;;;;;;;;;;5422024;26;19999;-67
2024/04/15 06:05:10;;;;;;;0.17;0.17;;;;;;;;;;5436902;26;20604;-67
2024/04/15 06:07:36;;;;;;;0.43;0.30;;;;;;;;;;5422157;26;20192;-67
2024/04/15 06:10:02;;;;;;;0.20;0.20;;;16.60;74.40;;;;;;5424608;26;19991;-67
2024/04/15 06:12:31;;;;;;;0.45;0.25;;;16.50;70.80;;;;;;5438783;26;19995;-66
2024/04/15 06:14:57;;;;;;;0.82;0.40;;;;;;;;;;5450629;26;20048;-67
2024/04/15 06:17:23;;;;;;;0.22;0.22;;;;;;;;;;5423288;26;20000;-67
2024/04/15 06:19:50;;;;;;;1.52;1.00;;;;;;;;;;5423416;26;19991;-67
2024/04/15 06:22:18;;;;;;;7.53;0.40;;;17.00;70.50;;;;;;5426613;26;20224;-68
2024/04/15 06:24:44;;;;;;;;;;;17.00;71.00;;;;;;5435379;26;20378;-67
2024/04/15 06:27:10;;;;;;;0.40;0.35;;;16.90;88.60;;;;;;5439499;26;19921;-67
2024/04/15 06:29:37;;;;;;;0.52;0.30;;;17.20;71.00;;;;;;5439206;26;19982;-67
2024/04/15 06:32:03;;;;;;;0.32;0.30;;;17.30;70.70;;;;;;5384127;26;19994;-67
2024/04/15 06:34:29;;;;;;;0.57;0.40;;;17.40;70.60;;;;;;5426374;26;20197;-67
2024/04/15 06:36:56;;;;;;;2.35;0.75;;;18.20;89.70;;;;;;5429951;26;20045;-67
2024/04/15 06:39:22;;;;;;;0.25;0.17;;;17.70;70.00;;;;;;5441182;26;20135;-68
2024/04/15 06:41:48;;;;;;;1.75;0.63;;;17.80;69.80;;;;;;5426839;26;19987;-67
2024/04/15 06:44:14;;;;;;;0.13;0.13;;;17.90;69.70;;;;;;5428770;26;20002;-67
2024/04/15 06:46:40;;;;;;;0.45;0.40;;;18.00;69.70;;;;;;5426194;26;19987;-67
2024/04/15 06:49:06;;;;;;;0.10;0.10;;;18.00;69.70;;;;;;5440552;26;20047;-67
2024/04/15 06:51:32;;;;;;;0.30;0.20;;;18.00;69.80;;;;;;5435443;26;20514;-67
2024/04/15 06:53:58;;;;;;;0.20;0.20;;;18.00;86.80;;;;;;5433410;26;20002;-67
2024/04/15 06:56:24;;;;;;;0.40;0.25;;;18.00;69.90;;;;;;5411645;26;20065;-67
2024/04/15 06:58:50;;;;;;;0.43;0.43;;;18.10;70.00;;;;;;5417804;26;19990;-67
2024/04/15 07:01:16;;;;;;;0.35;0.35;;;18.10;70.00;;;;;;5438452;26;19983;-67
2024/04/15 07:03:41;;;;;;;0.45;0.32;;;18.20;69.90;;;;;;5423758;26;20192;-68
2024/04/15 07:06:07;;;;;;;1.10;0.63;;;18.30;69.70;;;;;;5446421;26;20026;-66
2024/04/15 07:08:33;;;;;;;0.10;0.10;;;18.40;69.60;;;;;;5419119;26;19987;-67
2024/04/15 07:10:59;;;;;;;0.50;0.50;;;18.50;85.80;;;;;;5425920;26;19993;-67
2024/04/15 07:13:24;;;;;;;0.40;0.30;;;18.80;87.30;;;;;;5426175;26;20096;-68
2024/04/15 07:15:50;;;;;;;0.15;0.15;;;18.70;68.60;;;;;;5426250;26;20214;-71
2024/04/15 07:18:16;;;;;;;0.82;0.32;;;18.80;68.50;;;;;;5426462;26;19988;-69
2024/04/15 07:20:44;;;;;;;0.20;0.20;;;18.80;68.40;;;;;;5425164;26;19998;-68
2024/04/15 07:23:10;;;;;;;0.75;0.52;;;19.00;68.30;;;;;;5437834;26;20000;-67
2024/04/15 07:25:36;;;;;;;0.35;0.30;;;19.00;68.10;;;;;;5448595;26;19983;-68
2024/04/15 07:28:02;;;;;;;1.00;0.20;;;19.20;67.80;;;;;;5429237;26;19999;-68
2024/04/15 07:30:27;;;;;;;0.03;0.03;;;19.70;81.00;;;;;;5427886;26;19995;-69
2024/04/15 07:32:53;;;;;;;0.43;0.30;;;19.90;81.70;;;;;;5427994;26;19994;-72
2024/04/15 07:35:19;;;;;;;0.40;0.40;;;19.90;66.20;;;;;;5426395;26;20003;-68
2024/04/15 07:37:45;;;;;;;0.77;0.55;;;20.00;65.90;;;;;;5426080;26;19991;-68
2024/04/15 07:40:11;;;;;;;1.08;0.40;;;20.20;65.80;;;;;;5411639;26;19987;-68
2024/04/15 07:42:39;;;;;;;0.20;0.20;;;20.40;65.40;;;;;;5398364;26;19988;-71
2024/04/15 07:45:06;;;;;;;0.43;0.43;;;20.40;65.10;;;;;;5390488;26;20000;-68
2024/04/15 07:47:31;;;;;;;0.68;0.35;;;20.40;65.40;;;;;;5390199;26;19992;-68
2024/04/15 07:49:57;;;;;;;0.10;0.10;;;20.30;65.90;;;;;;5392458;26;20132;-68
2024/04/15 07:52:23;;;;;;;0.50;0.50;;;20.20;66.50;;;;;;5390115;26;19992;-69
2024/04/15 07:54:48;;;;;;;0.57;0.30;;;20.00;82.00;;;;;;5397933;26;20093;-68
2024/04/15 07:57:14;;;;;;;0.00;0.00;;;19.90;82.10;;;;;;5400018;26;19996;-69
2024/04/15 07:59:40;;;;;;;0.55;0.55;;;19.80;67.00;;;;;;5389940;26;20267;-67
2024/04/15 08:02:05;;;;;;;0.77;0.35;;;19.70;83.60;;;;;;5389768;26;19999;-68
2024/04/15 08:04:31;;;;;;;0.65;0.30;;;19.60;68.30;;;;;;5389905;26;20259;-67
2024/04/15 08:06:57;;;;;;;0.22;0.22;;;19.80;67.90;;;;;;5389813;26;20147;-68
2024/04/15 08:09:22;;;;;;;0.28;0.28;;;20.00;67.50;;;;;;5395794;26;19988;-68
2024/04/15 08:11:48;;;;;;;0.10;0.10;;;20.30;79.40;;;;;;5394713;26;20049;-68
2024/04/15 08:14:14;;;;;;;0.50;0.50;;;20.60;80.40;;;;;;5369530;26;20208;-68
2024/04/15 08:16:39;;;;;;;0.43;0.30;;;20.40;65.90;;;;;;5393494;26;19988;-68
2024/04/15 08:19:05;;;;;;;0.20;0.20;;;20.70;85.70;;;;;;5389576;26;20012;-67
2024/04/15 08:21:32;;;;;;;2.53;0.65;;;20.80;65.40;;;;;;5389648;26;20000;-68
2024/04/15 08:23:58;;;;;;;0.82;0.40;;;21.10;70.00;;;;;;5397026;26;19999;-68
2024/04/15 08:26:25;;;;;;;0.47;0.30;;;21.10;64.70;;;;;;5407531;26;20406;-68
2024/04/15 08:28:50;;;;;;;0.95;0.30;;;21.30;64.20;;;;;;5417493;26;19983;-69
2024/04/15 08:31:17;;;;;;;2.97;1.20;;;21.40;63.90;;;;;;5403345;26;19996;-68
2024/04/15 08:33:43;;;;;;;0.30;0.30;;;21.50;63.70;;;;;;5418022;26;19984;-68
2024/04/15 08:36:09;;;;;;;0.65;0.52;;;21.50;63.70;;;;;;5389098;26;20003;-69
2024/04/15 08:38:35;;;;;;;1.83;0.55;;;21.50;63.50;;;;;;5389274;26;20103;-68
2024/04/15 08:41:02;;;;;;;0.30;0.20;;;21.60;63.60;;;;;;5420220;26;20006;-68
2024/04/15 08:43:28;;;;;;;0.52;0.45;;;21.60;63.60;;;;;;5423993;26;19995;-68
2024/04/15 08:45:58;;;;;;;0.77;0.45;;;21.40;63.40;;;;;;5423528;26;19987;-68
2024/04/15 08:48:24;;;;;;;1.45;0.88;;;21.50;64.10;;;;;;5434947;26;20211;-68
2024/04/15 08:51:02;;;;;;;0.20;0.10;;;21.40;64.30;;;;;;5424498;26;20181;-68
2024/04/15 08:53:28;;;;;;;0.90;0.85;;;21.40;91.40;;;;;;5428941;26;19991;-68
2024/04/15 08:55:54;;;;;;;0.52;0.43;;;21.40;64.60;;;;;;5428165;26;19991;-68
2024/04/15 08:58:20;;;;;;;0.98;0.50;;;21.40;64.50;;;;;;5423180;26;20052;-68
2024/04/15 09:00:47;;;;;;;0.63;0.43;;;21.40;64.60;;;;;;5423046;26;20036;-68
2024/04/15 09:03:14;;;;;;;0.57;0.57;;;21.50;64.40;;;;;;5424343;26;19988;-69
2024/04/15 09:05:39;;;;;;;0.25;0.15;;;21.40;64.40;;;;;;5434748;26;20002;-71
2024/04/15 09:08:05;;;;;;;1.17;0.70;;;21.60;64.30;;;;;;5424214;26;20278;-68
2024/04/15 09:10:31;;;;;;;0.77;0.40;;;21.80;64.20;;;;;;5424025;26;19984;-68
2024/04/15 09:13:01;;;;;;;0.57;0.47;;;21.70;64.00;;;;;;5424050;26;20150;-68
2024/04/15 09:15:27;;;;;;;0.80;0.63;;;21.70;63.60;;;;;;5424093;26;20010;-68
2024/04/15 09:17:56;;;;;;;0.60;0.60;;;21.60;64.20;;;;;;5423970;26;19988;-68
2024/04/15 09:20:22;;;;;;;0.65;0.65;;;21.50;64.40;;;;;;5434888;26;20000;-68
2024/04/15 09:22:48;;;;;;;0.70;0.40;;;21.50;64.70;;;;;;5434215;26;20130;-68
2024/04/15 09:25:14;;;;;;;1.75;0.40;;;21.40;64.70;;;;;;5423994;26;19999;-67
2024/04/15 09:27:40;;;;;;;0.10;0.10;;;21.40;64.90;;;;;;5421870;26;20050;-69
2024/04/15 09:30:10;;;;;;;6.97;0.85;;;21.40;64.60;;;;;;5444899;26;19991;-68
2024/04/15 09:32:36;;;;;;;0.50;0.50;;;21.30;65.10;;;;;;5432119;26;20089;-67
2024/04/15 09:35:05;;;;;;;0.90;0.35;;;21.40;65.00;;;;;;5423533;26;20052;-69
2024/04/15 09:37:34;;;;;;;0.70;0.20;;;21.50;87.30;;;;;;5423827;26;20002;-68
2024/04/15 09:40:04;;;;;;;0.50;0.50;;;21.40;64.90;;;;;;5433826;26;19991;-67
2024/04/15 09:42:31;;;;;;;0.20;0.20;;;21.40;88.90;;;;;;5423569;26;20010;-67
2024/04/15 09:44:58;;;;;;;0.25;0.25;;;21.30;65.20;;;;;;5419347;26;20016;-68
2024/04/15 09:47:24;;;;;;;2.42;0.57;;;21.30;65.30;;;;;;5423641;26;20164;-67
2024/04/15 09:49:50;;;;;;;0.85;0.50;;;21.30;65.20;;;;;;5423485;26;19995;-67
2024/04/15 09:52:52;;;;;;;0.52;0.43;;;21.30;65.30;;;;;;5423337;26;20043;-67
2024/04/15 09:55:43;;;;;;;0.40;0.32;;;21.40;65.20;;;;;;5415935;26;20162;-67
2024/04/15 09:58:17;;;;;;;0.80;0.60;;;21.40;64.30;;;;;;5427365;26;20217;-67
2024/04/15 10:00:47;;;;;;;1.27;0.82;;;21.40;64.80;;;;;;5426935;26;20002;-67
2024/04/15 10:03:20;;;;;;;0.30;0.28;;;21.50;64.00;;;;;;5426897;26;20002;-67
2024/04/15 10:05:53;;;;;;;0.35;0.32;;;21.60;64.60;;;;;;5426773;26;20032;-68
2024/04/15 10:08:19;;;;;;;0.10;0.10;;;21.70;64.30;;;;;;5427010;26;19999;-68
2024/04/15 10:10:47;;;;;;;1.48;0.57;;;21.70;64.00;;;;;;5419458;26;20038;-69
2024/04/15 10:13:14;;;;;;;0.20;0.20;;;21.80;64.00;;;;;;5437470;26;20002;-67
2024/04/15 10:15:40;;;;;;;0.40;0.40;;;22.00;63.40;;;;;;5426837;26;19991;-68
2024/04/15 10:18:13;;;;;;;3.22;0.75;;;22.00;75.80;;;;;;5426852;26;20003;-68
2024/04/15 10:20:40;;;;;;;2.40;0.90;;;22.20;62.90;;;;;;5427715;26;19998;-67
2024/04/15 10:23:09;;;;;;;0.88;0.60;;;22.20;63.40;;;;;;5426784;26;19995;-68
2024/04/15 10:25:36;;;;;;;0.57;0.55;;;22.30;63.40;;;;;;5426626;26;20048;-68
2024/04/15 10:28:04;;;;;;;0.77;0.55;;;22.40;63.40;;;;;;5426671;26;19991;-68
2024/04/15 10:30:32;;;;;;;0.90;0.50;;;22.50;63.10;;;;;;5437050;26;19995;-68
2024/04/15 10:33:07;;;;;;;0.30;0.30;;;22.50;63.20;;;;;;5424755;26;19987;-67
2024/04/15 10:35:35;;;;;;;0.17;0.17;;;22.90;76.20;;;;;;5410610;26;20002;-68
2024/04/15 10:38:05;;;;;;;0.10;0.10;;;23.10;61.80;;;;;;5426308;26;20005;-68
2024/04/15 10:40:46;;;;;;;0.30;0.30;;;23.30;61.50;;;;;;5426132;26;20006;-68
2024/04/15 10:43:14;;;;;;;0.20;0.20;;;23.30;61.80;;;;;;5426430;26;19995;-68
2024/04/15 10:45:40;;;;;;;0.30;0.30;;;23.30;73.80;;;;;;5426562;26;20002;-69
2024/04/15 10:48:06;;;;;;;0.30;0.30;;;23.40;61.60;;;;;;5426347;26;20003;-68
2024/04/15 10:50:32;;;;;;;0.28;0.28;;;23.40;61.50;;;;;;5429579;26;20555;-68
2024/04/15 10:52:57;;;;;;;0.65;0.32;;;23.60;72.90;;;;;;5426103;26;19991;-67
2024/04/15 10:55:23;;;;;;;0.25;0.20;;;23.70;72.60;;;;;;5431810;26;19987;-68
2024/04/15 10:57:49;;;;;;;0.35;0.35;;;23.80;72.50;;;;;;5427029;26;20054;-68
2024/04/15 11:00:23;;;;;;;0.95;0.30;;;24.60;72.60;;;;;;5439607;26;19992;-68
2024/04/15 11:02:50;;;;;;;0.38;0.28;;;24.10;71.40;;;;;;5426116;26;20199;-68
2024/04/15 11:05:17;;;;;;;0.40;0.40;;;24.10;71.30;;;;;;5413488;26;20065;-69
2024/04/15 11:07:44;;;;;;;0.10;0.10;;;24.20;70.90;;;;;;5447713;26;20213;-68
2024/04/15 11:10:11;;;;;;;0.82;0.50;;;24.30;59.60;;;;;;5426255;26;19999;-69
2024/04/15 11:12:38;;;;;;;0.13;0.13;;;24.40;59.40;;;;;;5426287;26;20007;-68
2024/04/15 11:15:18;;;;;;;0.20;0.20;;;24.40;58.20;;;;;;5425976;26;20203;-68
2024/04/15 11:18:03;;;;;;;0.73;0.45;;;24.70;59.90;;;;;;5426257;26;19998;-68
2024/04/15 11:20:28;;;;;;;0.65;0.20;;;24.60;70.10;;;;;;5436114;26;19990;-68
2024/04/15 11:22:54;;;;;;;0.20;0.20;;;24.60;57.90;;;;;;5429535;26;20117;-68
2024/04/15 11:25:20;;;;;;;0.20;0.20;;;24.70;57.40;;;;;;5455918;26;20194;-68
2024/04/15 11:27:52;;;;;;;0.60;0.60;;;24.80;68.80;;;;;;5454998;26;20388;-69
2024/04/15 11:30:25;;;;;;;0.10;0.10;;;24.50;68.90;;;;;;5429608;26;19987;-68
2024/04/15 11:32:52;;;;;;;0.60;0.40;;;24.80;68.50;;;;;;5404997;26;20101;-68
2024/04/15 11:35:19;;;;;;;0.88;0.35;;;24.90;57.60;;;;;;5425701;26;20084;-68
2024/04/15 11:37:54;;;;;;;0.30;0.30;;;25.00;67.90;;;;;;5436219;26;20016;-69
2024/04/15 11:40:20;;;;;;;0.30;0.30;;;25.00;56.60;;;;;;5425352;26;19992;-69
2024/04/15 11:42:46;;;;;;;0.15;0.15;;;25.00;57.20;;;;;;5425441;26;20089;-67
2024/04/15 11:45:14;;;;;;;0.20;0.20;;;25.10;57.20;;;;;;5425546;26;20200;-68
2024/04/15 11:47:40;;;;;;;;;;;25.10;56.90;;;;;;5426295;26;19988;-70
2024/04/15 11:50:06;;;;;;;0.38;0.38;;;25.10;56.60;;;;;;5425421;26;19940;-68
2024/04/15 11:52:32;;;;;;;0.38;0.38;;;25.30;67.50;;;;;;5425612;26;19987;-68
2024/04/15 11:54:58;;;;;;;0.22;0.22;;;25.30;67.10;;;;;;5439035;26;19997;-68
2024/04/15 11:57:23;;;;;;;0.22;0.22;;;25.30;66.60;;;;;;5435215;26;19984;-73
2024/04/15 11:59:49;;;;;;;0.90;0.70;;;25.40;67.00;;;;;;5431174;26;19987;-70
2024/04/15 12:02:15;;;;;;;0.30;0.30;;;25.40;66.80;;;;;;5425492;26;19995;-68
2024/04/15 12:04:53;;;;;;;0.20;0.20;;;25.60;66.50;;;;;;5425416;26;19987;-76
2024/04/15 12:07:19;;;;;;;0.77;0.30;;;25.80;66.10;;;;;;5425458;26;19988;-73
2024/04/15 12:09:45;;;;;;;0.10;0.10;;;26.00;64.80;;;;;;5424232;26;20095;-77
2024/04/15 12:12:11;;;;;;;0.17;0.17;;;26.00;55.00;;;;;;5454523;26;20353;-69
2024/04/15 12:14:36;;;;;;;0.20;0.20;;;26.00;54.00;;;;;;5425186;26;19995;-73
2024/04/15 12:17:03;;;;;;;0.47;0.35;;;26.00;54.70;;;;;;5428787;26;20196;-68
2024/04/15 12:19:29;;;;;;;0.17;0.17;;;25.80;64.70;;;;;;5434532;26;20041;-70
2024/04/15 12:21:55;;;;;;;0.15;0.15;;;25.70;64.80;;;;;;5424790;26;20028;-68
2024/04/15 12:24:22;;;;;;;0.20;0.20;;;25.90;64.60;;;;;;5425219;26;20201;-68
2024/04/15 12:26:48;;;;;;;0.30;0.30;;;25.60;64.80;;;;;;5424794;26;20002;-68
2024/04/15 12:29:13;;;;;;;0.10;0.10;;;25.70;64.80;;;;;;5449924;26;20099;-68
2024/04/15 12:31:39;;;;;;;1.65;0.45;;;25.70;64.40;;;;;;5388632;26;19996;-68
2024/04/15 12:34:05;;;;;;;0.32;0.32;;;25.80;64.30;;;;;;5423720;26;21154;-68
2024/04/15 12:36:31;;;;;;;0.15;0.15;;;25.80;63.90;;;;;;5428851;26;20246;-68
2024/04/15 12:38:57;;;;;;;0.28;0.28;;;26.10;64.10;;;;;;5424589;26;19988;-68
2024/04/15 12:41:22;;;;;;;0.30;0.30;;;26.00;54.20;;;;;;5424927;26;19999;-69
2024/04/15 12:43:48;;;;;;;0.45;0.45;;;26.10;54.00;;;;;;5424839;26;19998;-68
2024/04/15 12:46:15;;;;;;;0.20;0.20;;;26.20;63.50;;;;;;5435446;26;20517;-68
2024/04/15 12:48:40;;;;;;;1.08;0.50;;;26.30;63.20;;;;;;5416614;26;20035;-68
2024/04/15 12:51:06;;;;;;;0.28;0.15;;;26.30;53.60;;;;;;5429698;26;20287;-68